A05 Elcamino Espanol — EBQE — position and weather

sailwx.info

Track history (hours):
 
Tides and Currents Weather Stations Pressure Air Temp Water Temp Dewpoint Dewpoint Depression Visibility Wind Speed Wind Dir Waves Ship Positions

A05 Elcamino Espanol

Last reported at 2017-Dec-10 16:27 UTC. Time now 2017-Dec-12 20:08 UTC.
Position N 37°33' W 000°58'.

Length 96 m.

MMSI: 224100000.

Date/timePositionNaut miles runAvg speedWind from/ knotsBaromVisibWave heightAir tempDewpointWater temp
2017-Dec-10 16:27N 37°33' W 000°58'4 7.8
2017-Dec-10 15:58N 37°32' W 000°54'4 7.2
2017-Dec-10 15:26N 37°32' W 000°49'3 7.0
2017-Dec-10 15:00N 37°32' W 000°45'4 7.3
2017-Dec-10 14:29N 37°33' W 000°40'4 7.8
2017-Dec-10 14:00N 37°34' W 000°36'4 7.9
2017-Dec-10 13:30N 37°37' W 000°32'4 8.0
2017-Dec-10 13:00N 37°40' W 000°30'4 8.1
2017-Dec-10 12:30N 37°43' W 000°27'  
2017-Dec-08 04:52N 37°59' W 000°09'1810.2
2017-Dec-08 03:09N 37°44' W 000°21'410.0
2017-Dec-08 02:42N 37°41' W 000°24'210.0
2017-Dec-08 02:29N 37°39' W 000°26'710.0
2017-Dec-08 01:45N 37°33' W 000°31'12 9.8
2017-Dec-08 00:32N 37°26' W 000°43'1 9.5
2017-Dec-08 00:27N 37°25' W 000°44'  
2017-Dec-01 20:54N 35°56' W 005°14'4 9.8
2017-Dec-01 20:30N 35°54' W 005°18'0 0.6
2017-Dec-01 20:00N 35°54' W 005°19'0 0.0
2017-Dec-01 19:30N 35°54' W 005°19'0 0.0
2017-Dec-01 19:00N 35°54' W 005°19'0 0.0
2017-Dec-01 18:30N 35°54' W 005°19'0 0.0
2017-Dec-01 18:00N 35°54' W 005°19'0 0.0
2017-Dec-01 17:30N 35°54' W 005°19'0 0.0
2017-Dec-01 17:00N 35°54' W 005°19'1 2.6
2017-Dec-01 16:30N 35°55' W 005°18'  
Track history (hours):
 
Tides and Currents Weather Stations Pressure Air Temp Water Temp Dewpoint Dewpoint Depression Visibility Wind Speed Wind Dir Waves Ship Positions

A05 Elcamino Espanol

Last reported at 2017-Dec-10 16:27 UTC. Time now 2017-Dec-12 20:08 UTC.
Position N 37°33' W 000°58'.

Length 96 m.

MMSI: 224100000.

Date/timePositionNaut miles runAvg speedWind from/ knotsBaromVisibWave heightAir tempDewpointWater temp
2017-Dec-10 16:27N 37°33' W 000°58'4 7.8
2017-Dec-10 15:58N 37°32' W 000°54'4 7.2
2017-Dec-10 15:26N 37°32' W 000°49'3 7.0
2017-Dec-10 15:00N 37°32' W 000°45'4 7.3
2017-Dec-10 14:29N 37°33' W 000°40'4 7.8
2017-Dec-10 14:00N 37°34' W 000°36'4 7.9
2017-Dec-10 13:30N 37°37' W 000°32'4 8.0
2017-Dec-10 13:00N 37°40' W 000°30'4 8.1
2017-Dec-10 12:30N 37°43' W 000°27'  
2017-Dec-08 04:52N 37°59' W 000°09'1810.2
2017-Dec-08 03:09N 37°44' W 000°21'410.0
2017-Dec-08 02:42N 37°41' W 000°24'210.0
2017-Dec-08 02:29N 37°39' W 000°26'710.0
2017-Dec-08 01:45N 37°33' W 000°31'12 9.8
2017-Dec-08 00:32N 37°26' W 000°43'1 9.5
2017-Dec-08 00:27N 37°25' W 000°44'  
2017-Dec-01 20:54N 35°56' W 005°14'4 9.8
2017-Dec-01 20:30N 35°54' W 005°18'0 0.6
2017-Dec-01 20:00N 35°54' W 005°19'0 0.0
2017-Dec-01 19:30N 35°54' W 005°19'0 0.0
2017-Dec-01 19:00N 35°54' W 005°19'0 0.0
2017-Dec-01 18:30N 35°54' W 005°19'0 0.0
2017-Dec-01 18:00N 35°54' W 005°19'0 0.0
2017-Dec-01 17:30N 35°54' W 005°19'0 0.0
2017-Dec-01 17:00N 35°54' W 005°19'1 2.6
2017-Dec-01 16:30N 35°55' W 005°18'  

Dump ship's entire track history